Últimos artigos:
Acender um LED com a tensão da rede eléctrica
Programação do Yaesu FT-60 para os EasySats
AO-91 (RadFxSat Fox-1B) está no Ar!
CT7AFR DIY CW-Keyer
Shutdown button for the Raspberry Pi
Simple C code to dump I2C device memory
Últimas fotos:
Últimos METARs:
LPAZ 162330Z 34009KT 9999 FEW028 14/08 Q10...
LPFR 162330Z 06009KT CAVOK 13/11 Q1021=
LPHR 162100Z 34009KT 9999 FEW025 13/06 Q10...
LPLA 162300Z /////KT 9999 FEW025 13/06 Q10...
LPMA 162330Z VRB02KT 9999 FEW016 15/11 Q10...
LPPD 162330Z 34006KT 310V010 9999 FEW014 S...
LPPR 162330Z 13007KT 7000 NSC 11/07 Q1021=
LPPS 162330Z 35003KT 300V020 9999 FEW015 1...
LPPT 162330Z 31005KT 280V340 CAVOK 12/10 Q...
Últimos QSOs:
2019/01/18-07:31 40m TM49OTAN (PHIL)
2018/09/08-11:04 40m DJ5AV (MICHAEL)
2018/09/08-11:03 40m M3FEH (KARL)
2018/09/08-11:01 40m EB7HQE (JESUS)
2018/09/08-11:00 40m G4AFI (ANDREW)
2018/09/08-10:59 40m EA2DT (MANUEL)
  UTC
Rpi-6 CPU Temp: 29.9 °C (162351Z)
IN51oq 2355Z /////KT //// 18/11 Q1021=
14592